createdAt,value
2022-12-22T00:00:57.436Z,70.10
2022-12-22T00:03:02.821Z,70.55
2022-12-22T00:05:21.060Z,70.50
2022-12-22T00:07:26.140Z,70.85
2022-12-22T00:09:31.268Z,70.43
2022-12-22T00:11:36.728Z,70.41
2022-12-22T00:13:44.377Z,70.44
2022-12-22T00:15:49.482Z,69.96
2022-12-22T00:17:54.571Z,70.44
2022-12-22T00:19:59.582Z,70.03
2022-12-22T00:22:16.850Z,70.18
2022-12-22T00:24:21.909Z,69.56
2022-12-22T00:26:27.490Z,69.88
2022-12-22T00:28:32.867Z,70.10
2022-12-22T00:30:38.296Z,69.96
2022-12-22T00:32:45.150Z,70.61
2022-12-22T00:34:50.694Z,70.46
2022-12-22T00:36:55.835Z,69.93
2022-12-22T00:39:00.947Z,70.21
2022-12-22T00:41:06.090Z,70.82
2022-12-22T00:43:11.171Z,70.80
2022-12-22T00:45:16.307Z,70.87
2022-12-22T00:47:28.854Z,71.26
2022-12-22T00:49:37.051Z,71.21
2022-12-22T00:51:42.183Z,71.01
2022-12-22T00:53:47.393Z,71.62
2022-12-22T00:55:52.639Z,71.40
2022-12-22T00:57:57.730Z,71.98
2022-12-22T01:00:02.860Z,71.97
2022-12-22T01:02:08.139Z,72.24
2022-12-22T01:04:14.198Z,72.02
2022-12-22T01:06:19.669Z,72.14
2022-12-22T01:08:24.730Z,72.20
2022-12-22T01:10:30.945Z,72.26
2022-12-22T01:12:37.465Z,72.15
2022-12-22T01:14:42.507Z,72.00
2022-12-22T01:16:47.664Z,71.81
2022-12-22T01:18:52.806Z,71.99
2022-12-22T01:20:58.171Z,72.45
2022-12-22T01:23:03.225Z,72.10
2022-12-22T01:25:15.647Z,72.04
2022-12-22T01:27:20.879Z,72.48
2022-12-22T01:29:25.974Z,72.46
2022-12-22T01:31:35.262Z,72.96
2022-12-22T01:33:40.429Z,72.84
2022-12-22T01:35:45.482Z,72.44
2022-12-22T01:37:50.541Z,72.43
2022-12-22T01:39:55.825Z,71.87
2022-12-22T01:42:00.922Z,71.68
2022-12-22T01:44:08.546Z,71.87
2022-12-22T01:46:19.802Z,71.72
2022-12-22T01:48:31.126Z,72.18
2022-12-22T01:50:39.267Z,71.99
2022-12-22T01:52:44.536Z,71.24
2022-12-22T01:54:50.605Z,71.41
2022-12-22T01:56:55.818Z,71.00
2022-12-22T01:59:04.199Z,71.46
2022-12-22T02:01:09.386Z,70.83
2022-12-22T02:03:18.803Z,71.26
2022-12-22T02:05:24.889Z,71.19
2022-12-22T02:07:38.009Z,71.24
2022-12-22T02:09:52.620Z,71.12
2022-12-22T02:12:08.896Z,71.23
2022-12-22T02:14:29.950Z,70.65
2022-12-22T02:16:42.069Z,71.05
2022-12-22T02:18:50.647Z,70.94
2022-12-22T02:21:00.444Z,70.76
2022-12-22T02:23:08.983Z,71.38
2022-12-22T02:25:23.284Z,70.79
2022-12-22T02:27:30.046Z,70.95
2022-12-22T02:29:40.050Z,71.52
2022-12-22T02:31:45.391Z,71.49
2022-12-22T02:33:51.558Z,71.78
2022-12-22T02:36:02.860Z,71.67
2022-12-22T02:38:11.499Z,71.35
2022-12-22T02:40:25.985Z,72.17
2022-12-22T02:42:35.645Z,71.91
2022-12-22T02:44:49.489Z,71.65
2022-12-22T02:47:04.515Z,72.06
2022-12-22T02:49:19.350Z,71.82
2022-12-22T02:51:30.709Z,71.66
2022-12-22T02:53:36.784Z,71.29
2022-12-22T02:55:42.100Z,71.37
2022-12-22T02:57:47.297Z,71.27
2022-12-22T02:59:52.270Z,72.25
2022-12-22T03:01:57.809Z,71.34
2022-12-22T03:04:02.891Z,71.68
2022-12-22T03:06:08.078Z,72.05
2022-12-22T03:08:13.163Z,72.02
2022-12-22T03:10:18.545Z,71.71
2022-12-22T03:12:23.702Z,71.24
2022-12-22T03:14:28.675Z,71.22
2022-12-22T03:16:33.769Z,71.38
2022-12-22T03:18:38.983Z,71.59
2022-12-22T03:20:44.167Z,71.09
2022-12-22T03:22:49.198Z,71.82
2022-12-22T03:24:54.205Z,71.80
2022-12-22T03:26:56.188Z,71.57
2022-12-22T03:28:58.188Z,71.48
2022-12-22T03:31:04.497Z,71.93
2022-12-22T03:33:06.667Z,72.01
2022-12-22T03:35:09.151Z,71.77
2022-12-22T03:37:11.128Z,72.51
2022-12-22T03:39:13.077Z,72.35
2022-12-22T03:41:35.010Z,71.70
2022-12-22T03:43:40.142Z,72.52
2022-12-22T03:45:45.176Z,71.96
2022-12-22T03:47:47.371Z,72.05
2022-12-22T03:49:49.394Z,72.71
2022-12-22T03:51:52.010Z,72.29
2022-12-22T03:53:53.931Z,72.62
2022-12-22T03:55:56.035Z,72.36
2022-12-22T03:57:58.108Z,72.83
2022-12-22T04:00:00.033Z,73.10
2022-12-22T04:02:02.231Z,73.03
2022-12-22T04:04:04.572Z,72.54
2022-12-22T04:06:06.531Z,72.76
2022-12-22T04:08:08.411Z,72.58
2022-12-22T04:10:14.116Z,72.63
2022-12-22T04:12:19.148Z,73.34
2022-12-22T04:14:21.841Z,73.69
2022-12-22T04:16:23.822Z,73.16
2022-12-22T04:18:25.864Z,72.87
2022-12-22T04:20:28.572Z,73.42
2022-12-22T04:22:30.574Z,73.81
2022-12-22T04:24:32.592Z,73.34
2022-12-22T04:26:34.987Z,73.71
2022-12-22T04:28:36.971Z,73.20
2022-12-22T04:30:39.047Z,73.51
2022-12-22T04:32:41.063Z,73.63
2022-12-22T04:34:42.981Z,73.26
2022-12-22T04:36:44.985Z,73.80
2022-12-22T04:38:47.098Z,73.39
2022-12-22T04:40:49.034Z,73.64
2022-12-22T04:42:51.066Z,73.71
2022-12-22T04:44:53.083Z,73.71
2022-12-22T04:46:55.031Z,73.73
2022-12-22T04:49:00.313Z,73.79
2022-12-22T04:51:04.360Z,74.16
2022-12-22T04:53:06.263Z,74.31
2022-12-22T04:55:09.480Z,74.38
2022-12-22T04:57:11.749Z,74.05
2022-12-22T04:59:13.785Z,75.04
2022-12-22T05:01:18.365Z,75.53
2022-12-22T05:03:20.395Z,74.84
2022-12-22T05:05:22.340Z,75.07
2022-12-22T05:07:24.406Z,75.10
2022-12-22T05:09:26.307Z,75.13
2022-12-22T05:11:28.448Z,75.61
2022-12-22T05:13:31.568Z,75.46
2022-12-22T05:15:35.747Z,75.17
2022-12-22T05:17:37.704Z,75.46
2022-12-22T05:19:39.671Z,75.10
2022-12-22T05:21:41.598Z,75.48
2022-12-22T05:23:44.323Z,75.82
2022-12-22T05:25:46.238Z,75.58
2022-12-22T05:27:50.750Z,75.55
2022-12-22T05:29:52.779Z,75.57
2022-12-22T05:31:54.753Z,75.49
2022-12-22T05:33:56.701Z,75.75
2022-12-22T05:35:58.696Z,76.15
2022-12-22T05:38:00.656Z,76.10
2022-12-22T05:40:03.461Z,75.58
2022-12-22T05:42:05.645Z,75.89
2022-12-22T05:44:07.634Z,76.14
2022-12-22T05:46:11.485Z,75.79
2022-12-22T05:48:14.005Z,75.97
2022-12-22T05:50:18.911Z,76.61
2022-12-22T05:52:20.989Z,76.27
2022-12-22T05:54:22.962Z,77.00
2022-12-22T05:56:25.026Z,76.72
2022-12-22T05:58:26.990Z,76.18
2022-12-22T06:00:31.316Z,76.53
2022-12-22T06:02:33.495Z,77.15
2022-12-22T06:04:35.608Z,76.96
2022-12-22T06:06:37.540Z,77.33
2022-12-22T06:08:39.513Z,78.04
2022-12-22T06:10:41.546Z,78.21
2022-12-22T06:12:43.822Z,77.45
2022-12-22T06:14:45.866Z,78.16
2022-12-22T06:16:47.869Z,77.92
2022-12-22T06:18:49.814Z,78.21
2022-12-22T06:20:53.606Z,77.92
2022-12-22T06:22:55.624Z,78.12
2022-12-22T06:24:57.524Z,78.54
2022-12-22T06:26:59.620Z,78.67
2022-12-22T06:29:01.547Z,78.44
2022-12-22T06:31:03.652Z,78.47
2022-12-22T06:33:05.662Z,78.60
2022-12-22T06:35:10.081Z,78.07
2022-12-22T06:37:12.057Z,78.29
2022-12-22T06:39:15.562Z,79.05
2022-12-22T06:41:37.321Z,79.13
2022-12-22T06:43:39.296Z,79.19
2022-12-22T06:45:42.762Z,78.98
2022-12-22T06:47:44.778Z,78.46
2022-12-22T06:49:46.744Z,78.80
2022-12-22T06:51:49.182Z,78.54
2022-12-22T06:53:51.092Z,78.68
2022-12-22T06:55:53.154Z,78.34
2022-12-22T06:57:55.154Z,77.95
2022-12-22T06:59:57.914Z,78.36
2022-12-22T07:02:00.152Z,78.26
2022-12-22T07:04:02.349Z,77.10
2022-12-22T07:06:04.693Z,77.25
2022-12-22T07:08:09.059Z,77.18
2022-12-22T07:10:12.177Z,77.35
2022-12-22T07:12:14.136Z,77.22
2022-12-22T07:14:16.305Z,77.45
2022-12-22T07:16:18.405Z,77.54
2022-12-22T07:18:20.811Z,77.26
2022-12-22T07:20:22.783Z,78.04
2022-12-22T07:22:29.982Z,76.92
2022-12-22T07:24:33.333Z,77.75
2022-12-22T07:26:35.463Z,77.90
2022-12-22T07:28:39.077Z,77.79
2022-12-22T07:30:41.001Z,77.43
2022-12-22T07:32:42.944Z,77.37
2022-12-22T07:34:45.738Z,76.74
2022-12-22T07:36:47.798Z,76.72
2022-12-22T07:38:51.373Z,76.77
2022-12-22T07:41:04.494Z,76.17
2022-12-22T07:43:08.305Z,76.06
2022-12-22T07:45:11.707Z,75.59
2022-12-22T07:47:13.698Z,75.89
2022-12-22T07:49:19.031Z,75.63
2022-12-22T07:51:21.071Z,76.21
2022-12-22T07:53:23.091Z,75.96
2022-12-22T07:55:27.181Z,76.68
2022-12-22T07:57:29.222Z,76.71
2022-12-22T07:59:31.365Z,76.95
2022-12-22T08:01:33.501Z,76.90
2022-12-22T08:03:35.594Z,76.70
2022-12-22T08:05:38.166Z,76.97
2022-12-22T08:07:40.190Z,76.36
2022-12-22T08:09:42.254Z,76.88
2022-12-22T08:11:44.251Z,76.85
2022-12-22T08:13:46.766Z,76.59
2022-12-22T08:15:48.944Z,77.04
2022-12-22T08:17:50.860Z,77.20
2022-12-22T08:19:53.096Z,77.74
2022-12-22T08:21:55.105Z,78.26
2022-12-22T08:23:57.133Z,77.66
2022-12-22T08:26:02.693Z,77.88
2022-12-22T08:28:05.275Z,78.23
2022-12-22T08:30:08.843Z,77.99
2022-12-22T08:32:13.046Z,78.48
2022-12-22T08:34:16.835Z,78.50
2022-12-22T08:36:18.988Z,78.80
2022-12-22T08:38:21.168Z,78.54
2022-12-22T08:40:30.872Z,79.03
2022-12-22T08:42:34.145Z,77.84
2022-12-22T08:44:39.235Z,78.51
2022-12-22T08:46:41.308Z,78.68
2022-12-22T08:48:43.408Z,78.74
2022-12-22T08:50:45.488Z,79.57
2022-12-22T08:52:47.567Z,79.26
2022-12-22T08:54:49.601Z,79.88
2022-12-22T08:56:51.678Z,79.89
2022-12-22T08:58:53.671Z,80.69
2022-12-22T09:00:55.867Z,80.93
2022-12-22T09:02:58.223Z,81.04
2022-12-22T09:05:00.485Z,82.22
2022-12-22T09:07:02.826Z,82.36
2022-12-22T09:09:08.002Z,82.07
2022-12-22T09:11:09.978Z,81.39
2022-12-22T09:13:12.110Z,81.79
2022-12-22T09:15:14.962Z,82.09
2022-12-22T09:17:16.946Z,81.89
2022-12-22T09:19:19.269Z,82.03
2022-12-22T09:21:22.084Z,82.59
2022-12-22T09:23:24.190Z,82.76
2022-12-22T09:25:26.483Z,82.89
2022-12-22T09:27:31.018Z,83.23
2022-12-22T09:29:33.363Z,83.71
2022-12-22T09:31:35.486Z,83.49
2022-12-22T09:33:37.951Z,83.06
2022-12-22T09:35:41.900Z,83.37
2022-12-22T09:37:43.995Z,83.16
2022-12-22T09:39:46.455Z,83.51
2022-12-22T09:41:52.052Z,83.73
2022-12-22T09:43:56.168Z,83.24
2022-12-22T09:45:58.741Z,83.78
2022-12-22T09:48:02.425Z,84.48
2022-12-22T09:50:08.983Z,83.59
2022-12-22T09:52:24.462Z,83.94
2022-12-22T09:54:27.385Z,84.28
2022-12-22T09:56:29.714Z,84.72
2022-12-22T09:58:34.719Z,84.12
2022-12-22T10:00:37.755Z,83.76
2022-12-22T10:02:53.076Z,83.83
2022-12-22T10:05:05.113Z,83.96
2022-12-22T10:07:13.524Z,83.80
2022-12-22T10:09:48.326Z,83.77
2022-12-22T10:11:51.639Z,84.25
2022-12-22T10:13:53.676Z,84.29
2022-12-22T10:15:56.608Z,84.85
2022-12-22T10:18:12.436Z,84.08
2022-12-22T10:20:21.216Z,84.41
2022-12-22T10:22:27.823Z,84.36
2022-12-22T10:24:35.356Z,84.01
2022-12-22T10:26:37.707Z,84.55
2022-12-22T10:28:44.779Z,84.66
2022-12-22T10:30:46.972Z,84.03
2022-12-22T10:33:04.280Z,84.43
2022-12-22T10:35:07.281Z,84.09
2022-12-22T10:37:09.389Z,83.88
2022-12-22T10:39:12.232Z,84.14
2022-12-22T10:41:20.208Z,83.47
2022-12-22T10:43:25.313Z,83.71
2022-12-22T10:45:28.425Z,83.74
2022-12-22T10:47:30.588Z,83.87
2022-12-22T10:51:41.241Z,83.35
2022-12-22T10:53:48.191Z,83.31
2022-12-22T10:56:06.263Z,83.37
2022-12-22T10:58:10.340Z,82.47
2022-12-22T11:00:18.594Z,82.90
2022-12-22T11:02:23.221Z,83.13
2022-12-22T11:04:28.274Z,83.23
2022-12-22T11:06:30.289Z,82.86
2022-12-22T11:08:32.921Z,82.33
2022-12-22T11:10:41.806Z,82.01
2022-12-22T11:12:50.371Z,82.07
2022-12-22T11:15:01.123Z,82.06
2022-12-22T11:17:11.908Z,82.06
2022-12-22T11:19:20.316Z,82.54
2022-12-22T11:21:26.143Z,82.75
2022-12-22T11:23:34.943Z,83.12
2022-12-22T11:25:46.760Z,82.49
2022-12-22T11:27:54.899Z,82.16
2022-12-22T11:30:00.507Z,82.75
2022-12-22T11:32:08.899Z,82.78
2022-12-22T11:34:20.677Z,82.85
2022-12-22T11:36:28.798Z,82.72
2022-12-22T11:38:34.396Z,82.42
2022-12-22T11:40:40.049Z,82.26
2022-12-22T11:42:52.249Z,82.03
2022-12-22T11:45:15.903Z,82.11
2022-12-22T11:47:19.873Z,82.57
2022-12-22T11:49:33.028Z,82.18
2022-12-22T11:51:41.398Z,82.38
2022-12-22T11:53:49.731Z,81.98
2022-12-22T11:55:59.556Z,82.01
2022-12-22T11:58:14.507Z,82.31
2022-12-22T12:00:19.186Z,81.69
2022-12-22T12:02:22.267Z,81.91
2022-12-22T12:04:30.798Z,82.20
2022-12-22T12:06:37.578Z,81.93
2022-12-22T12:08:44.183Z,81.75
2022-12-22T12:10:51.769Z,81.58
2022-12-22T12:12:57.774Z,81.70
2022-12-22T12:15:05.942Z,81.65
2022-12-22T12:17:09.011Z,81.60
2022-12-22T12:19:18.128Z,81.38
2022-12-22T12:21:27.331Z,81.67
2022-12-22T12:23:44.774Z,81.99
2022-12-22T12:25:55.838Z,81.29
2022-12-22T12:28:05.913Z,81.38
2022-12-22T12:32:43.395Z,81.25
2022-12-22T12:34:50.247Z,80.79
2022-12-22T12:36:55.810Z,80.68
2022-12-22T12:39:08.785Z,80.51
2022-12-22T12:41:15.101Z,80.00
2022-12-22T12:43:19.199Z,79.89
2022-12-22T12:45:27.613Z,79.42
2022-12-22T12:47:32.204Z,79.85
2022-12-22T12:49:34.963Z,79.58
2022-12-22T12:51:43.255Z,79.55
2022-12-22T12:54:08.310Z,79.16
2022-12-22T12:56:10.683Z,78.95
2022-12-22T12:58:33.207Z,78.75
2022-12-22T13:00:38.541Z,79.08
2022-12-22T13:02:58.301Z,79.31
2022-12-22T13:05:03.940Z,79.08
2022-12-22T13:07:06.232Z,79.09
2022-12-22T13:09:48.675Z,78.99
2022-12-22T13:12:11.210Z,79.42
2022-12-22T13:13:58.257Z,79.45
2022-12-22T13:16:02.597Z,79.19
2022-12-22T13:18:18.717Z,79.23
2022-12-22T13:20:28.389Z,79.07
2022-12-22T13:22:30.792Z,79.46
2022-12-22T13:24:47.228Z,79.38
2022-12-22T13:26:55.373Z,79.55
2022-12-22T13:29:02.200Z,79.59
2022-12-22T13:31:13.552Z,79.49
2022-12-22T13:33:20.106Z,79.24
2022-12-22T13:35:32.550Z,78.71
2022-12-22T13:37:40.953Z,78.59
2022-12-22T13:39:43.122Z,78.62
2022-12-22T13:41:48.596Z,78.65
2022-12-22T13:43:57.603Z,78.44
2022-12-22T13:46:03.911Z,78.46
2022-12-22T13:48:13.045Z,78.87
2022-12-22T13:50:20.132Z,78.59
2022-12-22T13:52:23.960Z,78.59
2022-12-22T13:54:32.639Z,78.52
2022-12-22T13:56:40.250Z,78.81
2022-12-22T13:58:45.594Z,79.21
2022-12-22T14:01:01.555Z,78.85
2022-12-22T14:03:09.167Z,78.67
2022-12-22T14:05:13.660Z,78.94
2022-12-22T14:07:19.685Z,79.14
2022-12-22T14:09:25.714Z,79.55
2022-12-22T14:11:27.858Z,79.40
2022-12-22T14:13:33.164Z,80.24
2022-12-22T14:15:35.587Z,80.32
2022-12-22T14:17:47.819Z,80.01
2022-12-22T14:19:56.612Z,80.68
2022-12-22T14:22:06.107Z,80.49
2022-12-22T14:24:14.897Z,80.55
2022-12-22T14:26:23.556Z,80.76
2022-12-22T14:28:27.841Z,81.21
2022-12-22T14:30:38.581Z,80.97
2022-12-22T14:32:52.358Z,81.12
2022-12-22T14:34:56.508Z,82.16
2022-12-22T14:37:01.743Z,82.08
2022-12-22T14:39:10.484Z,82.49
2022-12-22T14:41:22.884Z,82.92
2022-12-22T14:43:30.964Z,82.96
2022-12-22T14:45:34.020Z,83.45
2022-12-22T14:47:37.827Z,83.42
2022-12-22T14:49:46.381Z,83.54
2022-12-22T14:52:00.750Z,83.51
2022-12-22T14:54:04.156Z,83.60
2022-12-22T14:56:12.880Z,83.70
2022-12-22T14:58:20.887Z,83.90
2022-12-22T15:00:24.156Z,84.21
2022-12-22T15:02:36.677Z,83.92
2022-12-22T15:04:41.155Z,84.08
2022-12-22T15:06:46.257Z,83.95
2022-12-22T15:08:48.562Z,83.79
2022-12-22T15:10:50.783Z,83.81
2022-12-22T15:12:59.833Z,84.13
2022-12-22T15:15:02.357Z,83.83
2022-12-22T15:17:06.736Z,83.94
2022-12-22T15:19:13.197Z,83.95
2022-12-22T15:21:17.841Z,83.84
2022-12-22T15:23:19.955Z,83.83
2022-12-22T15:25:23.766Z,83.80
2022-12-22T15:27:25.909Z,84.06
2022-12-22T15:29:28.244Z,83.71
2022-12-22T15:31:30.534Z,83.75
2022-12-22T15:33:32.853Z,83.17
2022-12-22T15:35:35.639Z,83.55
2022-12-22T15:37:37.662Z,83.66
2022-12-22T15:39:40.584Z,83.48
2022-12-22T15:41:43.788Z,83.70
2022-12-22T15:44:01.310Z,83.56
2022-12-22T15:46:07.417Z,83.62
2022-12-22T15:48:18.760Z,83.92
2022-12-22T15:50:29.300Z,83.66
2022-12-22T15:52:33.429Z,83.69
2022-12-22T15:54:36.603Z,83.45
2022-12-22T15:56:39.456Z,83.29
2022-12-22T15:58:41.823Z,83.21
2022-12-22T16:00:44.370Z,83.15
2022-12-22T16:02:46.937Z,82.96
2022-12-22T16:04:49.235Z,83.18
2022-12-22T16:06:52.238Z,82.98
2022-12-22T16:08:55.291Z,83.38
2022-12-22T16:10:58.232Z,83.45
2022-12-22T16:13:03.859Z,83.56
2022-12-22T16:15:06.975Z,83.61
2022-12-22T16:17:18.768Z,83.60
2022-12-22T16:19:21.118Z,82.82
2022-12-22T16:21:30.799Z,83.12
2022-12-22T16:23:32.960Z,83.21
2022-12-22T16:25:39.115Z,82.60
2022-12-22T16:27:41.604Z,82.55
2022-12-22T16:29:53.426Z,82.55
2022-12-22T16:32:17.074Z,82.68
2022-12-22T16:34:20.042Z,82.95
2022-12-22T16:36:22.128Z,82.94
2022-12-22T16:38:24.236Z,82.71
2022-12-22T16:40:28.336Z,83.40
2022-12-22T16:46:39.498Z,83.33
2022-12-22T16:48:47.138Z,83.07
2022-12-22T16:50:49.406Z,83.18
2022-12-22T16:52:51.676Z,83.11
2022-12-22T16:54:53.769Z,83.07
2022-12-22T16:56:56.147Z,83.08
2022-12-22T16:58:58.707Z,82.69
2022-12-22T17:01:00.921Z,82.86
2022-12-22T17:03:13.489Z,82.94
2022-12-22T17:05:25.811Z,82.50
2022-12-22T17:07:33.946Z,82.52
2022-12-22T17:09:44.168Z,82.02
2022-12-22T17:11:47.341Z,81.90
2022-12-22T17:13:53.041Z,81.95
2022-12-22T17:15:55.241Z,81.97
2022-12-22T17:17:57.478Z,82.07
2022-12-22T17:19:59.777Z,82.02
2022-12-22T17:22:02.078Z,81.58
2022-12-22T17:24:05.007Z,81.85
2022-12-22T17:26:10.037Z,82.48
2022-12-22T17:28:14.101Z,82.10
2022-12-22T17:30:19.160Z,82.30
2022-12-22T17:32:22.240Z,82.69
2022-12-22T17:34:24.556Z,82.14
2022-12-22T17:36:30.469Z,82.36
2022-12-22T17:38:32.803Z,82.26
2022-12-22T17:40:34.920Z,82.12
2022-12-22T17:42:37.040Z,82.48
2022-12-22T17:44:39.550Z,82.68
2022-12-22T17:46:42.239Z,82.61
2022-12-22T17:48:45.787Z,82.48
2022-12-22T17:50:49.995Z,82.60
2022-12-22T17:52:52.498Z,82.57
2022-12-22T17:54:54.789Z,83.02
2022-12-22T17:57:02.290Z,82.66
2022-12-22T17:59:04.830Z,82.56
2022-12-22T18:01:07.366Z,82.70
2022-12-22T18:03:14.091Z,82.81
2022-12-22T18:05:18.437Z,82.76
2022-12-22T18:07:23.242Z,82.21
2022-12-22T18:09:26.792Z,82.42
2022-12-22T18:11:29.014Z,82.33
2022-12-22T18:13:32.325Z,81.85
2022-12-22T18:15:34.294Z,81.94
2022-12-22T18:17:36.373Z,82.29
2022-12-22T18:19:38.963Z,82.10
2022-12-22T18:21:41.381Z,82.20
2022-12-22T18:23:49.875Z,81.61
2022-12-22T18:25:52.856Z,81.76
2022-12-22T18:27:55.175Z,82.14
2022-12-22T18:29:57.369Z,81.88
2022-12-22T18:31:59.772Z,81.65
2022-12-22T18:34:01.871Z,81.65
2022-12-22T18:36:04.880Z,81.98
2022-12-22T18:38:07.775Z,81.78
2022-12-22T18:40:16.111Z,81.34
2022-12-22T18:42:22.402Z,82.08
2022-12-22T18:44:24.847Z,81.96
2022-12-22T18:46:27.072Z,81.80
2022-12-22T18:48:29.296Z,81.69
2022-12-22T18:50:33.063Z,81.95
2022-12-22T18:52:35.111Z,81.95
2022-12-22T18:54:38.272Z,81.71
2022-12-22T18:56:40.458Z,81.73
2022-12-22T18:58:43.078Z,81.83
2022-12-22T19:00:45.662Z,81.62
2022-12-22T19:02:49.319Z,81.74
2022-12-22T19:04:52.160Z,81.45
2022-12-22T19:06:54.366Z,81.70
2022-12-22T19:08:56.550Z,81.79
2022-12-22T19:11:00.775Z,81.41
2022-12-22T19:13:05.160Z,81.76
2022-12-22T19:15:16.376Z,81.52
2022-12-22T19:17:22.466Z,81.47
2022-12-22T19:19:24.681Z,81.25
2022-12-22T19:21:27.993Z,81.29
2022-12-22T19:23:30.012Z,81.02
2022-12-22T19:25:32.795Z,81.06
2022-12-22T19:27:34.912Z,80.83
2022-12-22T19:29:37.127Z,80.81
2022-12-22T19:31:39.420Z,80.89
2022-12-22T19:33:43.240Z,81.01
2022-12-22T19:35:45.398Z,80.65
2022-12-22T19:37:49.829Z,80.15
2022-12-22T19:39:51.914Z,79.92
2022-12-22T19:41:54.841Z,79.53
2022-12-22T19:43:57.255Z,79.78
2022-12-22T19:45:59.896Z,79.44
2022-12-22T19:48:04.613Z,79.00
2022-12-22T19:50:15.733Z,79.58
2022-12-22T19:52:17.774Z,79.45
2022-12-22T19:54:19.963Z,79.40
2022-12-22T19:56:25.719Z,79.24
2022-12-22T19:58:36.241Z,79.19
2022-12-22T20:00:39.202Z,79.14
2022-12-22T20:02:41.702Z,78.78
2022-12-22T20:04:43.762Z,78.77
2022-12-22T20:06:45.809Z,78.51
2022-12-22T20:08:47.877Z,78.24
2022-12-22T20:10:56.323Z,78.42
2022-12-22T20:13:02.272Z,78.63
2022-12-22T20:15:10.584Z,78.32
2022-12-22T20:17:12.730Z,78.03
2022-12-22T20:19:15.709Z,78.07
2022-12-22T20:21:27.257Z,77.97
2022-12-22T20:23:33.170Z,78.05
2022-12-22T20:25:40.255Z,78.20
2022-12-22T20:27:42.628Z,77.52
2022-12-22T20:29:44.644Z,77.11
2022-12-22T20:31:46.638Z,77.10
2022-12-22T20:33:49.905Z,77.27
2022-12-22T20:35:53.454Z,77.35
2022-12-22T20:37:55.556Z,76.88
2022-12-22T20:39:57.717Z,76.91
2022-12-22T20:41:59.772Z,76.95
2022-12-22T20:44:01.788Z,76.52
2022-12-22T20:46:14.140Z,76.24
2022-12-22T20:48:23.790Z,76.49
2022-12-22T20:50:28.955Z,76.45
2022-12-22T20:52:30.994Z,76.10
2022-12-22T20:54:33.300Z,76.12
2022-12-22T20:56:39.016Z,75.91
2022-12-22T20:58:41.173Z,75.73
2022-12-22T21:00:43.745Z,76.09
2022-12-22T21:02:46.407Z,75.64
2022-12-22T21:04:49.242Z,75.79
2022-12-22T21:06:53.953Z,75.92
2022-12-22T21:08:57.893Z,75.69
2022-12-22T21:11:00.979Z,75.61
2022-12-22T21:13:03.070Z,75.12
2022-12-22T21:15:05.894Z,74.97
2022-12-22T21:17:16.484Z,75.42
2022-12-22T21:19:19.955Z,75.43
2022-12-22T21:21:23.949Z,75.38
2022-12-22T21:23:26.379Z,75.47
2022-12-22T21:25:28.752Z,75.64
2022-12-22T21:27:31.255Z,75.86
2022-12-22T21:29:33.387Z,75.46
2022-12-22T21:31:35.632Z,75.75
2022-12-22T21:33:37.627Z,74.94
2022-12-22T21:35:39.804Z,74.68
2022-12-22T21:37:42.785Z,75.08
2022-12-22T21:39:45.152Z,74.95
2022-12-22T21:41:50.225Z,75.20
2022-12-22T21:43:52.324Z,75.18
2022-12-22T21:45:54.461Z,75.14
2022-12-22T21:48:01.101Z,75.32
2022-12-22T21:50:05.102Z,75.27
2022-12-22T21:52:07.176Z,74.66
2022-12-22T21:54:09.211Z,74.90
2022-12-22T21:56:17.772Z,74.88
2022-12-22T21:58:19.780Z,74.96
2022-12-22T22:00:22.921Z,74.74
2022-12-22T22:02:25.451Z,74.46
2022-12-22T22:04:27.429Z,74.35
2022-12-22T22:06:29.489Z,74.39
2022-12-22T22:08:31.460Z,74.17
2022-12-22T22:10:36.594Z,74.08
2022-12-22T22:12:42.356Z,73.91
2022-12-22T22:14:44.528Z,73.34
2022-12-22T22:16:46.586Z,73.20
2022-12-22T22:18:49.435Z,73.05
2022-12-22T22:20:51.394Z,73.06
2022-12-22T22:22:55.704Z,72.64
2022-12-22T22:24:57.773Z,72.79
2022-12-22T22:27:00.007Z,72.82
2022-12-22T22:29:02.166Z,73.11
2022-12-22T22:31:10.485Z,73.43
2022-12-22T22:33:12.733Z,72.79
2022-12-22T22:35:15.641Z,72.71
2022-12-22T22:37:17.795Z,72.71
2022-12-22T22:39:20.309Z,73.13
2022-12-22T22:41:22.493Z,73.06
2022-12-22T22:43:24.687Z,72.76
2022-12-22T22:45:26.747Z,73.30
2022-12-22T22:47:29.019Z,73.15
2022-12-22T22:49:31.297Z,73.17
2022-12-22T22:51:33.965Z,73.10
2022-12-22T22:53:36.273Z,73.37
2022-12-22T22:55:38.430Z,73.09
2022-12-22T22:57:42.015Z,72.92
2022-12-22T22:59:44.221Z,72.99
2022-12-22T23:01:46.592Z,72.83
2022-12-22T23:03:48.950Z,72.96
2022-12-22T23:05:51.069Z,72.91
2022-12-22T23:07:53.189Z,73.05
2022-12-22T23:09:55.431Z,73.17
2022-12-22T23:11:57.515Z,73.23
2022-12-22T23:14:00.048Z,73.12
2022-12-22T23:16:04.138Z,73.07
2022-12-22T23:18:06.300Z,73.14
2022-12-22T23:20:09.189Z,73.21
2022-12-22T23:22:11.406Z,72.75
2022-12-22T23:24:13.636Z,72.91
2022-12-22T23:26:15.903Z,72.70
2022-12-22T23:28:18.783Z,72.48
2022-12-22T23:30:20.921Z,72.83
2022-12-22T23:32:23.737Z,73.29
2022-12-22T23:34:26.031Z,73.23
2022-12-22T23:36:28.574Z,73.04
2022-12-22T23:38:30.811Z,73.46
2022-12-22T23:40:51.527Z,73.48
2022-12-22T23:42:56.981Z,73.86
2022-12-22T23:44:59.440Z,73.35
2022-12-22T23:47:01.865Z,73.06
2022-12-22T23:49:04.340Z,73.06
2022-12-22T23:51:07.765Z,72.74
2022-12-22T23:53:09.813Z,72.78
2022-12-22T23:55:11.990Z,72.64
2022-12-22T23:57:14.142Z,72.68
2022-12-22T23:59:16.307Z,72.61
